Time;durP1;ratioP1;P1;durP2;ratioP2;P2;SDS_P1;SDS_P2;PMS_P1;PMS_P2;Temp;Humidity;BMP_temperature;BMP_pressure;BME280_temperature;BME280_humidity;BME280_pressure;Samples;Min_cycle;Max_cycle;Signal;HPM_P1;HPM_P2
2023/07/27 00:00:11;;;;;;;4.72;2.33;;;21.40;94.90;;;;;;4068097;29;20052;-53
2023/07/27 00:02:13;;;;;;;3.58;1.73;;;21.30;95.10;;;;;;4067773;29;20067;-53
2023/07/27 00:04:18;;;;;;;1.73;1.23;;;21.30;95.10;;;;;;4068908;29;20055;-57
2023/07/27 00:06:20;;;;;;;;;;;21.30;95.10;;;;;;4069036;29;20131;-50
2023/07/27 00:08:22;;;;;;;5.43;1.38;;;21.40;95.30;;;;;;4068134;29;20028;-52
2023/07/27 00:10:24;;;;;;;10.38;1.90;;;21.30;95.30;;;;;;4068069;29;20044;-53
2023/07/27 00:12:26;;;;;;;3.97;1.30;;;21.30;95.40;;;;;;4067300;29;20048;-53
2023/07/27 00:14:28;;;;;;;4.63;1.48;;;21.30;95.50;;;;;;4067656;29;20084;-53
2023/07/27 00:16:30;;;;;;;3.78;1.30;;;21.30;95.60;;;;;;4069858;29;20059;-59
2023/07/27 00:18:33;;;;;;;3.50;1.67;;;21.30;95.80;;;;;;4070793;29;20059;-53
2023/07/27 00:20:36;;;;;;;2.97;1.75;;;21.30;95.90;;;;;;4070044;29;20068;-53
2023/07/27 00:22:38;;;;;;;4.88;1.45;;;21.30;96.00;;;;;;4068756;29;20060;-50
2023/07/27 00:24:40;;;;;;;4.05;1.42;;;21.20;96.10;;;;;;4069651;29;20104;-52
2023/07/27 00:26:42;;;;;;;4.65;1.52;;;21.20;96.20;;;;;;4068768;29;20119;-52
2023/07/27 00:28:45;;;;;;;4.15;1.60;;;21.20;96.30;;;;;;4073583;29;20079;-52
2023/07/27 00:30:51;;;;;;;4.03;1.40;;;21.20;96.40;;;;;;4073326;29;20052;-54
2023/07/27 00:32:54;;;;;;;2.60;1.30;;;21.20;96.40;;;;;;4071309;29;20063;-52
2023/07/27 00:34:56;;;;;;;7.82;5.50;;;21.20;96.60;;;;;;4071409;29;20044;-53
2023/07/27 00:36:59;;;;;;;6.90;1.75;;;21.20;96.60;;;;;;4071269;29;20102;-53
2023/07/27 00:39:01;;;;;;;3.90;1.02;;;21.20;96.60;;;;;;4069913;29;20064;-53
2023/07/27 00:41:04;;;;;;;3.85;1.83;;;21.20;96.70;;;;;;4071119;29;20051;-52
2023/07/27 00:43:06;;;;;;;4.53;1.27;;;21.20;96.80;;;;;;4070214;29;20059;-53
2023/07/27 00:45:09;;;;;;;6.00;1.35;;;21.20;96.90;;;;;;4070870;29;20079;-53
2023/07/27 00:47:11;;;;;;;4.28;2.13;;;21.20;97.00;;;;;;4070872;29;20048;-53
2023/07/27 00:49:13;;;;;;;3.30;1.42;;;21.20;97.20;;;;;;4070840;29;20067;-51
2023/07/27 00:51:15;;;;;;;4.90;1.30;;;21.10;97.30;;;;;;4070585;29;20135;-52
2023/07/27 00:53:19;;;;;;;4.72;1.55;;;21.10;97.50;;;;;;4070303;29;20131;-52
2023/07/27 00:55:21;;;;;;;2.17;1.40;;;21.10;97.50;;;;;;4070520;29;20126;-52
2023/07/27 00:57:23;;;;;;;4.40;1.52;;;21.20;97.50;;;;;;4070275;29;20059;-50
2023/07/27 00:59:25;;;;;;;2.00;1.08;;;21.20;97.50;;;;;;4070625;29;20079;-50
2023/07/27 01:01:28;;;;;;;2.20;1.10;;;21.20;97.60;;;;;;4069319;29;20127;-50
2023/07/27 01:03:30;;;;;;;4.63;1.48;;;21.20;97.70;;;;;;4069904;29;20127;-52
2023/07/27 01:05:34;;;;;;;3.58;1.67;;;21.10;97.80;;;;;;4070657;29;20455;-54
2023/07/27 01:07:36;;;;;;;4.32;1.45;;;21.10;97.90;;;;;;4070419;29;20051;-52
2023/07/27 01:09:39;;;;;;;4.32;1.60;;;21.10;97.90;;;;;;4070487;29;20127;-53
2023/07/27 01:11:49;;;;;;;3.50;1.30;;;21.10;98.10;;;;;;4069511;29;20047;-52
2023/07/27 01:13:55;;;;;;;4.90;1.38;;;21.00;98.10;;;;;;4070370;29;20127;-53
2023/07/27 01:16:02;;;;;;;3.92;1.17;;;21.00;98.10;;;;;;4070200;29;20055;-50
2023/07/27 01:18:10;;;;;;;6.53;1.40;;;21.00;98.20;;;;;;4070384;29;20076;-52
2023/07/27 01:20:26;;;;;;;3.17;1.45;;;21.00;98.10;;;;;;4070000;29;20080;-55
2023/07/27 01:22:54;;;;;;;2.05;1.20;;;21.00;98.10;;;;;;4069869;29;20064;-52
2023/07/27 01:25:19;;;;;;;2.70;1.10;;;21.00;98.20;;;;;;4070188;29;20048;-52
2023/07/27 01:27:37;;;;;;;1.90;1.08;;;21.00;98.30;;;;;;4070234;29;20052;-53
2023/07/27 01:29:55;;;;;;;4.72;1.33;;;21.00;98.30;;;;;;4070138;29;20111;-52
2023/07/27 01:32:00;;;;;;;2.70;0.95;;;21.00;98.40;;;;;;4069604;29;20079;-52
2023/07/27 01:34:12;;;;;;;1.55;1.05;;;20.90;98.50;;;;;;4070603;29;20135;-52
2023/07/27 01:36:21;;;;;;;2.20;1.50;;;20.90;98.50;;;;;;4070636;29;20148;-53
2023/07/27 01:38:24;;;;;;;4.28;1.60;;;20.90;98.60;;;;;;4069490;29;20460;-52
2023/07/27 01:40:28;;;;;;;3.53;1.40;;;20.90;98.50;;;;;;4069552;29;20198;-52
2023/07/27 01:42:31;;;;;;;7.40;1.43;;;20.90;98.60;;;;;;4069389;29;20506;-53
2023/07/27 01:44:39;;;;;;;2.60;1.08;;;20.90;98.60;;;;;;4070060;29;20980;-52
2023/07/27 01:46:43;;;;;;;2.38;1.20;;;20.90;98.70;;;;;;4069780;29;20048;-53
2023/07/27 01:48:48;;;;;;;3.78;1.17;;;20.80;98.70;;;;;;4069873;29;20099;-53
2023/07/27 01:50:50;;;;;;;5.95;1.30;;;20.80;98.90;;;;;;4069923;29;20048;-53
2023/07/27 01:52:54;;;;;;;2.92;1.15;;;20.80;98.90;;;;;;4068395;29;20059;-52
2023/07/27 01:54:58;;;;;;;2.63;1.20;;;20.80;98.80;;;;;;4069629;29;20083;-52
2023/07/27 01:57:01;;;;;;;2.42;1.17;;;20.80;99.00;;;;;;4069796;29;20076;-53
2023/07/27 01:59:04;;;;;;;3.35;1.30;;;20.80;99.10;;;;;;4070155;29;20044;-53
2023/07/27 02:01:07;;;;;;;3.38;1.42;;;20.70;99.00;;;;;;4069711;29;20523;-53
2023/07/27 02:03:11;;;;;;;6.45;2.10;;;20.70;99.00;;;;;;4068031;29;20058;-53
2023/07/27 02:05:15;;;;;;;4.80;1.30;;;20.80;98.90;;;;;;4070328;29;20076;-56
2023/07/27 02:07:18;;;;;;;;;;;20.70;99.30;;;;;;4071128;29;20467;-52
2023/07/27 02:09:20;;;;;;;2.50;1.20;;;20.70;99.10;;;;;;4070425;29;20327;-54
2023/07/27 02:11:24;;;;;;;2.72;1.23;;;20.60;99.20;;;;;;4070662;29;20052;-51
2023/07/27 02:13:31;;;;;;;2.30;1.58;;;20.70;99.20;;;;;;4070496;29;20055;-52
2023/07/27 02:15:38;;;;;;;2.33;1.50;;;20.70;99.20;;;;;;4070542;29;20127;-50
2023/07/27 02:17:45;;;;;;;9.25;1.40;;;20.60;99.20;;;;;;4069697;29;20052;-49
2023/07/27 02:19:55;;;;;;;3.30;1.20;;;20.60;99.20;;;;;;4069337;29;20052;-49
2023/07/27 02:22:02;;;;;;;4.20;1.35;;;20.60;99.30;;;;;;4068736;29;20095;-51
2023/07/27 02:24:05;;;;;;;2.72;1.23;;;20.60;99.30;;;;;;4068690;29;20044;-50
2023/07/27 02:26:07;;;;;;;4.50;1.35;;;20.60;99.20;;;;;;4069502;29;20127;-53
2023/07/27 02:28:10;;;;;;;1.98;1.13;;;20.60;99.20;;;;;;4069461;29;20123;-53
2023/07/27 02:30:12;;;;;;;2.47;1.10;;;20.60;99.50;;;;;;4069923;29;20415;-52
2023/07/27 02:32:15;;;;;;;3.50;1.10;;;20.60;99.30;;;;;;4069270;29;20100;-53
2023/07/27 02:34:17;;;;;;;4.57;1.40;;;20.50;99.40;;;;;;4069592;29;20048;-53
2023/07/27 02:36:19;;;;;;;2.85;1.52;;;20.50;99.40;;;;;;4069341;29;20062;-53
2023/07/27 02:38:22;;;;;;;2.03;1.23;;;20.50;99.40;;;;;;4068811;29;20056;-54
2023/07/27 02:40:24;;;;;;;2.83;1.70;;;20.50;99.50;;;;;;4069341;29;20056;-53
2023/07/27 02:42:27;;;;;;;4.43;1.45;;;20.50;99.70;;;;;;4068765;29;20405;-53
2023/07/27 02:44:29;;;;;;;3.60;1.67;;;20.50;99.90;;;;;;4069165;29;20456;-52
2023/07/27 02:46:31;;;;;;;2.42;1.10;;;20.40;99.90;;;;;;4069009;29;20048;-52
2023/07/27 02:48:33;;;;;;;5.82;1.27;;;20.40;99.90;;;;;;4069122;29;20055;-51
2023/07/27 02:50:35;;;;;;;2.30;1.00;;;20.30;99.90;;;;;;4068256;29;20055;-52
2023/07/27 02:52:37;;;;;;;3.72;1.35;;;20.30;99.90;;;;;;4068259;29;20075;-54
2023/07/27 02:54:41;;;;;;;1.50;0.93;;;20.30;99.90;;;;;;4069038;29;20072;-52
2023/07/27 02:56:43;;;;;;;2.25;1.20;;;20.20;99.90;;;;;;4068828;29;20054;-53
2023/07/27 02:58:45;;;;;;;2.15;1.02;;;20.20;99.90;;;;;;4068901;29;20048;-53
2023/07/27 03:00:50;;;;;;;1.98;1.20;;;20.20;99.90;;;;;;4068757;29;20048;-52
2023/07/27 03:02:54;;;;;;;3.78;1.40;;;20.20;99.90;;;;;;4068580;29;20052;-57
2023/07/27 03:04:57;;;;;;;1.65;1.30;;;20.10;99.90;;;;;;4068746;29;20056;-53
2023/07/27 03:06:59;;;;;;;3.80;1.67;;;20.10;99.90;;;;;;4068325;29;20252;-53
2023/07/27 03:09:02;;;;;;;4.43;2.00;;;20.10;99.90;;;;;;4068508;29;20052;-53
2023/07/27 03:11:05;;;;;;;3.60;1.90;;;20.10;99.90;;;;;;4068711;29;20048;-52
2023/07/27 03:13:07;;;;;;;2.45;1.98;;;20.10;99.90;;;;;;4068036;29;20436;-52
2023/07/27 03:15:10;;;;;;;3.13;2.10;;;20.10;99.90;;;;;;4068629;29;20523;-53
2023/07/27 03:17:12;;;;;;;2.60;2.10;;;20.10;99.90;;;;;;4069077;29;20440;-52
2023/07/27 03:19:14;;;;;;;3.42;1.60;;;20.10;99.90;;;;;;4067490;29;20064;-52
2023/07/27 03:21:16;;;;;;;6.70;1.80;;;20.10;99.90;;;;;;4068148;29;20070;-53
2023/07/27 03:23:21;;;;;;;3.75;2.10;;;20.10;99.90;;;;;;4067894;29;20111;-52
2023/07/27 03:25:23;;;;;;;4.20;1.83;;;20.00;99.90;;;;;;4068213;29;20098;-53
2023/07/27 03:27:26;;;;;;;2.45;1.77;;;20.10;99.90;;;;;;4068357;29;20048;-53
2023/07/27 03:29:29;;;;;;;8.57;2.20;;;20.10;99.90;;;;;;4068629;29;20048;-54
2023/07/27 03:31:31;;;;;;;3.03;2.00;;;20.10;99.90;;;;;;4068557;29;20058;-52
2023/07/27 03:33:33;;;;;;;2.50;1.70;;;20.10;99.90;;;;;;4067994;29;20123;-52
2023/07/27 03:35:35;;;;;;;3.45;1.50;;;20.10;99.90;;;;;;4068191;29;20063;-51
2023/07/27 03:37:37;;;;;;;3.83;1.55;;;20.00;99.90;;;;;;4068323;29;20048;-53
2023/07/27 03:39:39;;;;;;;2.25;1.00;;;20.10;99.90;;;;;;4068491;29;20052;-53
2023/07/27 03:41:41;;;;;;;1.83;1.00;;;20.00;99.90;;;;;;4068266;29;20050;-53
2023/07/27 03:43:45;;;;;;;2.38;1.25;;;20.00;99.90;;;;;;4067681;29;20128;-54
2023/07/27 03:45:47;;;;;;;4.32;1.20;;;20.10;99.90;;;;;;4068259;29;20123;-53
2023/07/27 03:47:49;;;;;;;1.95;1.20;;;20.10;99.90;;;;;;4068446;29;20051;-52
2023/07/27 03:49:51;;;;;;;3.30;0.90;;;20.10;99.90;;;;;;4068461;29;20080;-52
2023/07/27 03:51:53;;;;;;;2.30;0.90;;;20.10;99.90;;;;;;4067763;29;20080;-54
2023/07/27 03:53:55;;;;;;;2.65;0.90;;;20.10;99.90;;;;;;4067626;29;20051;-53
2023/07/27 03:56:01;;;;;;;5.28;0.98;;;20.10;99.90;;;;;;4068695;29;20135;-58
2023/07/27 03:58:03;;;;;;;2.58;0.80;;;20.10;99.90;;;;;;4067946;29;20075;-54
2023/07/27 04:00:08;;;;;;;2.42;0.95;;;20.00;99.90;;;;;;4052163;29;20049;-51
2023/07/27 04:02:10;;;;;;;1.52;0.70;;;20.00;99.90;;;;;;4068219;29;20452;-55
2023/07/27 04:04:12;;;;;;;0.60;0.60;;;20.00;99.90;;;;;;4068661;29;20056;-50
2023/07/27 04:06:14;;;;;;;2.83;0.90;;;20.00;99.90;;;;;;4068404;29;20079;-51
2023/07/27 04:08:16;;;;;;;3.05;0.82;;;19.90;99.90;;;;;;4068370;29;20067;-50
2023/07/27 04:10:18;;;;;;;1.98;0.70;;;19.90;99.90;;;;;;4067923;29;20048;-50
2023/07/27 04:12:20;;;;;;;0.75;0.70;;;19.90;99.90;;;;;;4067429;29;20080;-53
2023/07/27 04:14:22;;;;;;;9.02;1.50;;;19.90;99.90;;;;;;4068003;29;20048;-51
2023/07/27 04:16:26;;;;;;;3.85;0.90;;;19.90;99.90;;;;;;4068507;29;20040;-51
2023/07/27 04:18:28;;;;;;;0.80;0.75;;;19.90;99.90;;;;;;4067811;29;20048;-52
2023/07/27 04:20:30;;;;;;;7.20;2.42;;;19.90;99.90;;;;;;4067611;29;20052;-53
2023/07/27 04:22:32;;;;;;;4.25;1.40;;;20.00;99.90;;;;;;4067203;29;20488;-52
2023/07/27 04:24:34;;;;;;;1.77;1.08;;;20.00;99.90;;;;;;4067657;29;20067;-52
2023/07/27 04:26:36;;;;;;;1.60;0.70;;;20.00;99.90;;;;;;4068181;29;20415;-52
2023/07/27 04:28:38;;;;;;;0.88;0.80;;;20.00;99.90;;;;;;4067838;29;20127;-52
2023/07/27 04:30:42;;;;;;;1.83;0.60;;;20.00;99.90;;;;;;4067820;29;20063;-52
2023/07/27 04:32:45;;;;;;;0.80;0.80;;;20.00;99.90;;;;;;4067382;29;20044;-52
2023/07/27 04:34:47;;;;;;;1.50;0.70;;;20.00;99.90;;;;;;4067402;29;20138;-52
2023/07/27 04:36:50;;;;;;;0.90;0.60;;;19.90;99.90;;;;;;4067691;29;20072;-52
2023/07/27 04:38:51;;;;;;;1.08;0.70;;;20.00;99.90;;;;;;4068035;29;20079;-50
2023/07/27 04:40:54;;;;;;;1.63;0.80;;;19.90;99.90;;;;;;4067904;29;20059;-51
2023/07/27 04:42:56;;;;;;;2.58;0.73;;;20.00;99.90;;;;;;4066985;29;20449;-53
2023/07/27 04:44:58;;;;;;;0.90;0.57;;;19.90;99.90;;;;;;4067611;29;20075;-52
2023/07/27 04:47:02;;;;;;;1.60;0.73;;;20.00;99.90;;;;;;4067963;29;20444;-51
2023/07/27 04:49:08;;;;;;;1.38;0.88;;;20.00;99.90;;;;;;4067593;29;20052;-51
2023/07/27 04:51:10;;;;;;;2.15;0.70;;;20.00;99.90;;;;;;4067765;29;20135;-52
2023/07/27 04:53:12;;;;;;;1.48;0.80;;;20.10;99.90;;;;;;4067200;29;20071;-52
2023/07/27 04:55:15;;;;;;;0.82;0.80;;;20.00;99.90;;;;;;4067711;29;20055;-52
2023/07/27 04:57:17;;;;;;;3.35;0.98;;;20.00;99.90;;;;;;4067528;29;20044;-52
2023/07/27 04:59:19;;;;;;;1.25;0.90;;;20.00;99.90;;;;;;4068007;29;20408;-52
2023/07/27 05:01:21;;;;;;;1.00;0.90;;;20.00;99.90;;;;;;4067649;29;20079;-52
2023/07/27 05:03:23;;;;;;;1.30;1.20;;;20.00;99.90;;;;;;4066608;29;20044;-52
2023/07/27 05:05:26;;;;;;;2.67;1.05;;;19.90;99.90;;;;;;4067578;29;20052;-52
2023/07/27 05:07:28;;;;;;;1.23;0.88;;;19.90;99.90;;;;;;4067634;29;20132;-53
2023/07/27 05:09:30;;;;;;;1.63;0.85;;;19.90;99.90;;;;;;4067514;29;20546;-53
2023/07/27 05:11:34;;;;;;;1.48;0.90;;;19.90;99.90;;;;;;4067595;29;20148;-52
2023/07/27 05:13:36;;;;;;;0.80;0.80;;;19.90;99.90;;;;;;4067257;29;20551;-52
2023/07/27 05:15:40;;;;;;;1.88;1.23;;;20.00;99.90;;;;;;4070455;29;20445;-53
2023/07/27 05:17:42;;;;;;;1.00;0.80;;;20.00;99.90;;;;;;4070201;29;20127;-52
2023/07/27 05:19:44;;;;;;;3.65;1.05;;;20.00;99.90;;;;;;4070413;29;20052;-52
2023/07/27 05:21:48;;;;;;;1.90;1.20;;;20.00;99.90;;;;;;4070118;29;20146;-52
2023/07/27 05:23:50;;;;;;;1.98;1.10;;;20.00;99.90;;;;;;4069534;29;20055;-54
2023/07/27 05:25:52;;;;;;;1.10;1.00;;;20.10;99.90;;;;;;4070321;29;20058;-52
2023/07/27 05:27:54;;;;;;;1.40;0.70;;;20.00;99.90;;;;;;4070313;29;20407;-52
2023/07/27 05:29:56;;;;;;;3.63;0.98;;;20.10;99.90;;;;;;4070201;29;20047;-52
2023/07/27 05:31:58;;;;;;;1.70;0.77;;;20.10;99.90;;;;;;4069783;29;20156;-53
2023/07/27 05:34:00;;;;;;;3.40;1.23;;;20.10;99.90;;;;;;4069442;29;20217;-53
2023/07/27 05:36:02;;;;;;;3.30;1.15;;;20.10;99.90;;;;;;4070088;29;20123;-52
2023/07/27 05:38:06;;;;;;;1.60;0.80;;;20.10;99.90;;;;;;4070169;29;20510;-52
2023/07/27 05:40:09;;;;;;;1.38;0.90;;;20.10;99.90;;;;;;4070137;29;20052;-52
2023/07/27 05:42:11;;;;;;;1.75;1.10;;;20.10;99.90;;;;;;4070952;29;20411;-53
2023/07/27 05:44:13;;;;;;;2.10;0.80;;;20.10;99.90;;;;;;4070327;29;20134;-52
2023/07/27 05:46:15;;;;;;;2.00;1.15;;;20.10;99.90;;;;;;4070167;29;20048;-52
2023/07/27 05:48:17;;;;;;;4.72;1.15;;;20.10;99.90;;;;;;4070422;29;20098;-56
2023/07/27 05:50:19;;;;;;;1.42;1.15;;;20.10;99.90;;;;;;4070874;29;20048;-52
2023/07/27 05:52:21;;;;;;;2.28;1.10;;;20.10;99.90;;;;;;4070804;29;20048;-52
2023/07/27 05:54:25;;;;;;;4.45;1.55;;;20.10;99.90;;;;;;4070061;29;20058;-52
2023/07/27 05:56:27;;;;;;;2.88;1.00;;;20.10;99.90;;;;;;4070505;29;20047;-52
2023/07/27 05:58:29;;;;;;;3.13;1.20;;;20.10;99.90;;;;;;4070578;29;20054;-52
2023/07/27 06:00:32;;;;;;;3.55;1.13;;;20.10;99.90;;;;;;4070447;29;20066;-54
2023/07/27 06:02:34;;;;;;;2.28;1.20;;;20.10;99.90;;;;;;4070364;29;20123;-52
2023/07/27 06:04:36;;;;;;;2.83;1.27;;;20.20;99.90;;;;;;4070350;29;20048;-51
2023/07/27 06:06:38;;;;;;;5.47;1.25;;;20.20;99.90;;;;;;4070283;29;20051;-51
2023/07/27 06:08:41;;;;;;;3.05;1.20;;;20.30;99.90;;;;;;4070047;29;20123;-53
2023/07/27 06:10:44;;;;;;;3.10;1.33;;;20.30;99.90;;;;;;4053513;29;20112;-52
2023/07/27 06:12:46;;;;;;;2.17;1.27;;;20.30;99.90;;;;;;4070085;29;20055;-52
2023/07/27 06:14:48;;;;;;;2.95;1.48;;;20.30;99.90;;;;;;4070266;29;20052;-52
2023/07/27 06:16:50;;;;;;;3.30;1.40;;;20.30;99.90;;;;;;4069627;29;20048;-52
2023/07/27 06:18:52;;;;;;;4.07;1.40;;;20.40;99.90;;;;;;4070593;29;20127;-51
2023/07/27 06:20:54;;;;;;;4.68;1.63;;;20.50;99.90;;;;;;4070523;29;20054;-52
2023/07/27 06:22:57;;;;;;;1.95;1.23;;;20.50;99.90;;;;;;4069530;29;20127;-52
2023/07/27 06:24:59;;;;;;;4.00;1.25;;;20.50;99.90;;;;;;4069854;29;20215;-53
2023/07/27 06:27:03;;;;;;;3.22;1.60;;;20.50;99.90;;;;;;4070696;29;20139;-56
2023/07/27 06:29:05;;;;;;;2.30;1.50;;;20.60;99.90;;;;;;4070321;29;20056;-52
2023/07/27 06:31:07;;;;;;;4.82;1.60;;;20.70;99.90;;;;;;4069874;29;20052;-52
2023/07/27 06:33:09;;;;;;;7.70;1.75;;;20.80;99.90;;;;;;4069683;29;20048;-52
2023/07/27 06:35:12;;;;;;;6.95;1.40;;;20.70;99.90;;;;;;4070096;29;20054;-50
2023/07/27 06:37:14;;;;;;;5.78;1.63;;;20.70;99.90;;;;;;4069882;29;20078;-51
2023/07/27 06:39:15;;;;;;;4.32;1.70;;;20.80;99.90;;;;;;4069601;29;20076;-51
2023/07/27 06:41:24;;;;;;;2.42;1.40;;;20.80;99.90;;;;;;4069776;29;20056;-50
2023/07/27 06:43:27;;;;;;;1.83;1.30;;;20.80;99.90;;;;;;4069141;29;20393;-50
2023/07/27 06:45:30;;;;;;;4.22;1.50;;;20.90;99.90;;;;;;4069270;29;20052;-50
2023/07/27 06:47:32;;;;;;;3.35;1.40;;;20.80;99.90;;;;;;4070394;29;20139;-50
2023/07/27 06:49:34;;;;;;;4.22;1.50;;;20.90;99.90;;;;;;4069738;29;20060;-50
2023/07/27 06:51:37;;;;;;;2.75;1.77;;;20.90;99.90;;;;;;4069503;29;20123;-50
2023/07/27 06:53:39;;;;;;;2.90;1.77;;;20.90;99.90;;;;;;4069156;29;20060;-50
2023/07/27 06:55:41;;;;;;;4.00;1.40;;;21.00;99.70;;;;;;4070146;29;20048;-53
2023/07/27 06:57:43;;;;;;;2.95;1.50;;;21.10;99.70;;;;;;4069888;29;20048;-51
2023/07/27 06:59:46;;;;;;;2.95;1.67;;;21.10;99.50;;;;;;4069233;29;20048;-52
2023/07/27 07:01:48;;;;;;;5.28;2.30;;;21.10;99.60;;;;;;4069250;29;20059;-52
2023/07/27 07:03:51;;;;;;;3.70;1.58;;;21.20;99.50;;;;;;4068309;29;20139;-52
2023/07/27 07:05:53;;;;;;;4.13;1.80;;;21.20;99.40;;;;;;4069212;29;20053;-52
2023/07/27 07:07:55;;;;;;;6.95;1.75;;;21.30;99.20;;;;;;4068767;29;20445;-52
2023/07/27 07:09:58;;;;;;;2.55;1.70;;;21.40;99.20;;;;;;4068680;29;20052;-50
2023/07/27 07:12:01;;;;;;;4.13;1.95;;;21.40;99.00;;;;;;4068660;29;20091;-51
2023/07/27 07:14:03;;;;;;;1.50;1.40;;;21.40;98.80;;;;;;4068101;29;20104;-53
2023/07/27 07:16:07;;;;;;;1.52;1.42;;;21.40;98.80;;;;;;4068772;29;20055;-53
2023/07/27 07:18:09;;;;;;;6.05;2.05;;;21.50;98.70;;;;;;4068798;29;20055;-54
2023/07/27 07:20:11;;;;;;;3.63;1.85;;;21.50;98.70;;;;;;4068731;29;20072;-54
2023/07/27 07:22:13;;;;;;;4.43;1.85;;;21.50;98.50;;;;;;4068227;29;20067;-52
2023/07/27 07:24:15;;;;;;;3.88;1.92;;;21.50;98.50;;;;;;4067559;29;20044;-53
2023/07/27 07:26:17;;;;;;;4.85;2.00;;;21.50;98.50;;;;;;4068540;29;20488;-53
2023/07/27 07:28:19;;;;;;;4.63;1.90;;;21.60;98.50;;;;;;4068245;29;20048;-54
2023/07/27 07:30:22;;;;;;;4.03;2.25;;;21.60;98.40;;;;;;4068499;29;20126;-53
2023/07/27 07:32:26;;;;;;;5.22;2.00;;;21.60;97.70;;;;;;4068371;29;20225;-53
2023/07/27 07:34:28;;;;;;;5.13;2.53;;;21.60;97.30;;;;;;4067617;29;20075;-53
2023/07/27 07:36:30;;;;;;;4.60;2.63;;;21.60;97.10;;;;;;4067863;29;20070;-53
2023/07/27 07:38:33;;;;;;;6.80;3.30;;;21.60;96.70;;;;;;4068171;29;20134;-53
2023/07/27 07:40:35;;;;;;;4.32;2.47;;;21.70;96.60;;;;;;4068036;29;20079;-54
2023/07/27 07:42:37;;;;;;;5.43;2.55;;;21.70;95.90;;;;;;4068195;29;20082;-52
2023/07/27 07:44:39;;;;;;;4.03;2.50;;;21.80;95.90;;;;;;4067761;29;20086;-51
2023/07/27 07:46:42;;;;;;;9.27;2.85;;;21.80;95.90;;;;;;4068201;29;20052;-51
2023/07/27 07:48:47;;;;;;;5.50;2.42;;;21.90;95.70;;;;;;4068256;29;20484;-51
2023/07/27 07:50:50;;;;;;;;;;;21.80;95.50;;;;;;4068970;29;20135;-53
2023/07/27 07:52:52;;;;;;;6.00;2.88;;;21.80;95.50;;;;;;4067898;29;19979;-53
2023/07/27 07:54:57;;;;;;;4.78;2.67;;;21.80;95.50;;;;;;4067572;29;20048;-51
2023/07/27 07:56:59;;;;;;;3.17;2.55;;;21.90;95.50;;;;;;4067649;29;20408;-51
2023/07/27 07:59:02;;;;;;;5.10;2.72;;;22.00;95.30;;;;;;4067977;29;20056;-51
2023/07/27 08:01:04;;;;;;;6.45;2.67;;;22.00;95.40;;;;;;4068007;29;20052;-51
2023/07/27 08:03:06;;;;;;;9.35;3.35;;;22.10;95.00;;;;;;4067452;29;20488;-54
2023/07/27 08:05:10;;;;;;;7.13;2.90;;;22.00;95.30;;;;;;4067740;29;20055;-56
2023/07/27 08:07:12;;;;;;;4.40;2.60;;;22.00;95.10;;;;;;4067892;29;20222;-53
2023/07/27 08:09:14;;;;;;;6.03;2.58;;;22.00;94.80;;;;;;4067849;29;20509;-54
2023/07/27 08:11:16;;;;;;;5.22;2.38;;;22.10;94.90;;;;;;4067435;29;20140;-54
2023/07/27 08:13:18;;;;;;;12.93;2.90;;;22.20;94.80;;;;;;4067288;29;20400;-52
2023/07/27 08:15:20;;;;;;;4.10;2.40;;;22.50;94.60;;;;;;4067775;29;20079;-53
2023/07/27 08:17:22;;;;;;;7.63;2.00;;;22.40;94.50;;;;;;4067804;29;20052;-53
2023/07/27 08:19:25;;;;;;;4.88;2.05;;;22.40;94.30;;;;;;4067908;29;20052;-54
2023/07/27 08:21:29;;;;;;;4.68;2.20;;;22.50;94.50;;;;;;4067633;29;20063;-54
2023/07/27 08:23:33;;;;;;;3.22;1.73;;;22.40;94.40;;;;;;4067220;29;20056;-54
2023/07/27 08:25:37;;;;;;;3.88;2.03;;;22.50;94.10;;;;;;4067419;29;20066;-54
2023/07/27 08:27:39;;;;;;;2.80;1.85;;;22.50;94.10;;;;;;4067790;29;20051;-54
2023/07/27 08:29:41;;;;;;;4.97;2.05;;;22.50;94.00;;;;;;4067851;29;20052;-53
2023/07/27 08:31:43;;;;;;;4.72;1.92;;;22.60;94.00;;;;;;4067997;29;20056;-53
2023/07/27 08:33:45;;;;;;;3.25;1.60;;;22.80;94.10;;;;;;4067039;29;20048;-53
2023/07/27 08:35:47;;;;;;;3.88;1.63;;;22.90;93.80;;;;;;4067805;29;20408;-54
2023/07/27 08:37:51;;;;;;;7.60;1.70;;;22.90;93.40;;;;;;4067649;29;20416;-51
2023/07/27 08:39:53;;;;;;;4.28;1.80;;;22.90;93.50;;;;;;4067499;29;20059;-52
2023/07/27 08:41:55;;;;;;;2.88;1.33;;;22.70;93.60;;;;;;4067524;29;20059;-52
2023/07/27 08:43:58;;;;;;;2.78;1.60;;;22.80;93.60;;;;;;4066924;29;20554;-52
2023/07/27 08:46:01;;;;;;;3.85;1.60;;;22.80;93.60;;;;;;4067775;29;20048;-51
2023/07/27 08:48:05;;;;;;;5.97;2.10;;;22.70;93.60;;;;;;4067847;29;20052;-52
2023/07/27 08:50:08;;;;;;;6.97;2.10;;;22.70;93.80;;;;;;4069282;29;20443;-53
2023/07/27 08:52:13;;;;;;;5.97;1.80;;;22.70;94.10;;;;;;4070629;29;20055;-53
2023/07/27 08:54:16;;;;;;;;;;;22.70;93.80;;;;;;4070335;29;20056;-52
2023/07/27 08:56:18;;;;;;;6.40;1.90;;;22.80;93.80;;;;;;4070137;29;20024;-51
2023/07/27 08:58:21;;;;;;;5.95;1.70;;;22.80;93.60;;;;;;4070460;29;20119;-53
2023/07/27 09:00:23;;;;;;;7.40;1.60;;;22.90;93.60;;;;;;4070568;29;20079;-53
2023/07/27 09:02:25;;;;;;;4.60;1.83;;;22.90;93.30;;;;;;4070494;29;20059;-54
2023/07/27 09:04:27;;;;;;;4.28;1.70;;;22.90;93.30;;;;;;4068569;29;20139;-53
2023/07/27 09:06:37;;;;;;;5.85;1.75;;;23.00;93.30;;;;;;4070210;29;20048;-53
2023/07/27 09:08:39;;;;;;;4.50;1.55;;;22.90;93.20;;;;;;4070285;29;20044;-53
2023/07/27 09:10:43;;;;;;;2.22;1.40;;;22.90;93.20;;;;;;4070087;29;20184;-53
2023/07/27 09:12:46;;;;;;;2.97;1.50;;;23.10;93.20;;;;;;4070397;29;20044;-52
2023/07/27 09:14:48;;;;;;;3.42;1.48;;;23.00;92.90;;;;;;4069862;29;20048;-54
2023/07/27 09:16:50;;;;;;;2.83;1.83;;;23.10;93.10;;;;;;4070304;29;20412;-54
2023/07/27 09:18:57;;;;;;;3.28;1.80;;;23.00;93.00;;;;;;4060593;29;20127;-54
2023/07/27 09:21:06;;;;;;;6.32;1.90;;;23.00;93.20;;;;;;4065420;29;20040;-54
2023/07/27 09:23:08;;;;;;;20.13;3.10;;;23.00;93.20;;;;;;4060976;29;20052;-52
2023/07/27 09:25:11;;;;;;;67.53;7.20;;;23.00;93.20;;;;;;4064624;29;20056;-53
2023/07/27 09:27:15;;;;;;;16.92;4.00;;;22.90;93.30;;;;;;4070130;29;20132;-53
2023/07/27 09:29:19;;;;;;;8.07;2.28;;;22.90;93.20;;;;;;4069947;29;20072;-51
2023/07/27 09:31:21;;;;;;;11.48;2.25;;;22.80;93.60;;;;;;4070057;29;20136;-52
2023/07/27 09:33:23;;;;;;;6.05;1.95;;;22.80;93.20;;;;;;4069340;29;20562;-51
2023/07/27 09:35:25;;;;;;;8.73;2.00;;;22.60;93.30;;;;;;4053090;29;20052;-51
2023/07/27 09:37:28;;;;;;;3.97;1.80;;;22.70;93.40;;;;;;4069841;29;20169;-50
2023/07/27 09:39:33;;;;;;;2.25;1.50;;;22.60;93.40;;;;;;4069387;29;20146;-52
2023/07/27 09:41:35;;;;;;;5.97;1.60;;;22.60;93.30;;;;;;4052991;29;20045;-53
2023/07/27 09:43:39;;;;;;;3.05;1.48;;;22.50;93.40;;;;;;4069032;29;20048;-53
2023/07/27 09:45:42;;;;;;;5.70;1.50;;;22.40;93.40;;;;;;4052844;29;20113;-54
2023/07/27 09:47:45;;;;;;;2.03;1.40;;;22.40;93.50;;;;;;4069651;29;20056;-52
2023/07/27 09:49:49;;;;;;;3.95;1.63;;;22.50;93.70;;;;;;4069548;29;20131;-51
2023/07/27 09:51:52;;;;;;;3.03;1.60;;;22.50;93.70;;;;;;4070014;29;20507;-51
2023/07/27 09:53:56;;;;;;;2.45;1.30;;;22.60;93.50;;;;;;4068434;29;20048;-51
2023/07/27 09:55:58;;;;;;;2.55;1.52;;;22.50;93.50;;;;;;4069658;29;20072;-50
2023/07/27 09:58:01;;;;;;;6.07;1.65;;;22.60;93.50;;;;;;4069546;29;20052;-54
2023/07/27 10:00:06;;;;;;;4.53;1.58;;;22.70;93.40;;;;;;4069157;29;20052;-52
2023/07/27 10:02:09;;;;;;;3.05;1.52;;;22.70;93.30;;;;;;4069449;29;20123;-52
2023/07/27 10:04:11;;;;;;;2.40;1.60;;;22.60;93.10;;;;;;4067438;29;20045;-52
2023/07/27 10:06:16;;;;;;;2.72;1.48;;;22.70;93.40;;;;;;4063058;29;20048;-52
2023/07/27 10:08:18;;;;;;;2.92;1.73;;;22.60;93.50;;;;;;4068038;29;20144;-50
2023/07/27 10:10:26;;;;;;;5.18;1.85;;;22.70;93.40;;;;;;4060780;29;20159;-52
2023/07/27 10:12:28;;;;;;;2.13;1.60;;;22.70;93.20;;;;;;4068764;29;20059;-53
2023/07/27 10:14:31;;;;;;;3.22;2.00;;;22.70;93.50;;;;;;4067945;29;20530;-51
2023/07/27 10:16:34;;;;;;;3.17;1.70;;;22.70;93.30;;;;;;4067906;29;20054;-51
2023/07/27 10:18:41;;;;;;;3.10;1.90;;;22.70;93.50;;;;;;4067570;29;20107;-54
2023/07/27 10:20:44;;;;;;;3.45;1.60;;;22.60;93.40;;;;;;4068445;29;20482;-51
2023/07/27 10:22:50;;;;;;;2.92;1.88;;;22.70;93.50;;;;;;4067762;29;20132;-51
2023/07/27 10:24:53;;;;;;;3.08;1.80;;;22.80;93.40;;;;;;4067448;29;20056;-51
2023/07/27 10:26:56;;;;;;;3.92;1.95;;;22.80;93.30;;;;;;4068573;29;20056;-51
2023/07/27 10:29:15;;;;;;;2.40;1.88;;;22.80;93.20;;;;;;4068197;29;20063;-51
2023/07/27 10:31:26;;;;;;;5.03;2.10;;;22.80;93.20;;;;;;4068243;29;20052;-54
2023/07/27 10:33:30;;;;;;;2.78;2.20;;;22.80;93.40;;;;;;4067897;29;20107;-51
2023/07/27 10:36:00;;;;;;;2.60;1.80;;;22.80;93.40;;;;;;4068091;29;20044;-51
2023/07/27 10:38:04;;;;;;;3.25;2.08;;;22.80;93.00;;;;;;4068147;29;20065;-51
2023/07/27 10:40:09;;;;;;;5.57;2.08;;;22.90;93.30;;;;;;4068072;29;20056;-51
2023/07/27 10:42:14;;;;;;;4.00;2.20;;;22.90;93.20;;;;;;4067170;29;20134;-51